Time;durP1;ratioP1;P1;durP2;ratioP2;P2;SDS_P1;SDS_P2;PMS_P1;PMS_P2;Temp;Humidity;BMP_temperature;BMP_pressure;BME280_temperature;BME280_humidity;BME280_pressure;Samples;Min_cycle;Max_cycle;Signal;HPM_P1;HPM_P2
2020/12/04 00:01:25;;;;;;;;;;;5.90;75.30;;;;;;4930545;28;117875;-88
2020/12/04 00:03:51;;;;;;;;;;;5.90;75.30;;;;;;4930967;28;117221;-88
2020/12/04 00:06:16;;;;;;;;;;;5.90;75.30;;;;;;4930173;28;120197;-88
2020/12/04 00:08:42;;;;;;;;;;;5.90;75.30;;;;;;4930131;28;119225;-88
2020/12/04 00:11:07;;;;;;;;;;;5.90;75.30;;;;;;4930818;28;117379;-88
2020/12/04 00:13:33;;;;;;;;;;;5.90;75.30;;;;;;4930965;28;117878;-88
2020/12/04 00:15:59;;;;;;;;;;;5.90;75.30;;;;;;4930188;28;118452;-88
2020/12/04 00:18:25;;;;;;;;;;;5.90;75.30;;;;;;4913671;28;117666;-88
2020/12/04 00:20:50;;;;;;;;;;;5.90;75.40;;;;;;4930743;28;117600;-88
2020/12/04 00:23:16;;;;;;;;;;;5.90;75.30;;;;;;4930815;28;117830;-88
2020/12/04 00:25:41;;;;;;;;;;;5.90;75.40;;;;;;4929765;28;120064;-88
2020/12/04 00:28:07;;;;;;;;;;;5.90;75.30;;;;;;4929094;28;120202;-87
2020/12/04 00:30:32;;;;;;;;;;;5.90;75.40;;;;;;4930529;28;117513;-88
2020/12/04 00:32:58;;;;;;;;;;;5.90;75.30;;;;;;4930917;28;117731;-88
2020/12/04 00:35:23;;;;;;;;;;;5.90;75.30;;;;;;4928726;28;121018;-87
2020/12/04 00:37:49;;;;;;;;;;;5.90;75.40;;;;;;4929982;28;117612;-88
2020/12/04 00:40:14;;;;;;;;;;;5.90;75.30;;;;;;4930378;28;117326;-87
2020/12/04 00:42:40;;;;;;;;;;;5.90;75.40;;;;;;4930541;28;117421;-87
2020/12/04 00:45:07;;;;;;;;;;;5.90;75.40;;;;;;4929737;28;120148;-88
2020/12/04 00:47:33;;;;;;;;;;;5.90;75.40;;;;;;4929618;28;120706;-88
2020/12/04 00:49:58;;;;;;;;;;;5.90;75.40;;;;;;4930486;28;117332;-87
2020/12/04 00:52:24;;;;;;;;;;;5.90;75.40;;;;;;4929767;28;118044;-88
2020/12/04 00:54:49;;;;;;;;;;;5.90;75.30;;;;;;4929370;28;120261;-88
2020/12/04 00:57:15;;;;;;;;;;;5.90;75.30;;;;;;4929510;28;120366;-87
2020/12/04 00:59:40;;;;;;;;;;;5.90;75.40;;;;;;4930173;28;117739;-87
2020/12/04 01:02:06;;;;;;;;;;;5.90;75.30;;;;;;4930399;28;117500;-88
2020/12/04 01:04:31;;;;;;;;;;;5.80;75.30;;;;;;4929676;28;120157;-88
2020/12/04 01:06:57;;;;;;;;;;;5.90;75.40;;;;;;4929418;28;120649;-88
2020/12/04 01:09:22;;;;;;;;;;;5.90;75.40;;;;;;4930605;28;117455;-88
2020/12/04 01:11:48;;;;;;;;;;;5.90;75.50;;;;;;4930733;28;117477;-88
2020/12/04 01:14:13;;;;;;;;;;;5.90;75.50;;;;;;4929628;28;120404;-88
2020/12/04 01:16:39;;;;;;;;;;;5.80;75.50;;;;;;4928854;28;118372;-88
2020/12/04 01:19:04;;;;;;;;;;;5.90;75.60;;;;;;4930179;28;117322;-87
2020/12/04 01:21:30;;;;;;;;;;;5.90;75.50;;;;;;4930822;28;117360;-88
2020/12/04 01:23:55;;;;;;;;;;;5.90;75.50;;;;;;4929666;28;120334;-88
2020/12/04 01:26:21;;;;;;;;;;;5.90;75.50;;;;;;4930157;28;119639;-87
2020/12/04 01:28:46;;;;;;;;;;;5.90;75.60;;;;;;4930769;28;117282;-87
2020/12/04 01:31:12;;;;;;;;;;;5.90;75.60;;;;;;4930726;28;117716;-88
2020/12/04 01:33:37;;;;;;;;;;;5.90;75.50;;;;;;4929392;28;118440;-87
2020/12/04 01:36:03;;;;;;;;;;;5.90;75.60;;;;;;4929625;28;121087;-88
2020/12/04 01:38:29;;;;;;;;;;;5.90;75.60;;;;;;4914274;28;117706;-88
2020/12/04 01:41:01;;;;;;;;;;;5.90;75.60;;;;;;4931307;28;117524;-88
2020/12/04 01:43:26;;;;;;;;;;;5.90;75.60;;;;;;4930063;28;121065;-87
2020/12/04 01:45:52;;;;;;;;;;;5.90;75.60;;;;;;4913033;28;120328;-88
2020/12/04 01:48:17;;;;;;;;;;;5.90;75.70;;;;;;4930390;28;117540;-88
2020/12/04 01:50:43;;;;;;;;;;;5.90;75.60;;;;;;4930398;28;117911;-88
2020/12/04 01:53:09;;;;;;;;;;;5.90;75.70;;;;;;4928808;28;121188;-88
2020/12/04 01:55:34;;;;;;;;;;;5.90;75.70;;;;;;4928708;28;120292;-87
2020/12/04 01:58:01;;;;;;;;;;;5.90;75.60;;;;;;4929743;28;117574;-88
2020/12/04 02:00:26;;;;;;;;;;;5.90;75.60;;;;;;4913583;28;117841;-88
2020/12/04 02:02:52;;;;;;;;;;;5.90;75.60;;;;;;4927508;28;120281;-88
2020/12/04 02:05:17;;;;;;;;;;;5.90;75.70;;;;;;4927873;28;120602;-88
2020/12/04 02:07:58;;;;;;;;;;;5.90;75.60;;;;;;4929082;28;117572;-88
2020/12/04 02:10:36;;;;;;;;;;;5.90;75.70;;;;;;4913401;28;118003;-87
2020/12/04 02:13:02;;;;;;;;;;;5.90;75.60;;;;;;4912111;28;121313;-88
2020/12/04 02:15:27;;;;;;;;;;;5.90;75.60;;;;;;4928184;28;119057;-88
2020/12/04 02:17:56;;;;;;;;;;;5.90;75.60;;;;;;4928941;28;117534;-88
2020/12/04 02:20:22;;;;;;;;;;;5.90;75.60;;;;;;4929135;28;117804;-88
2020/12/04 02:22:47;;;;;;;;;;;5.90;75.70;;;;;;4927986;28;120250;-88
2020/12/04 02:25:13;;;;;;;;;;;5.90;75.60;;;;;;4928020;28;118718;-88
2020/12/04 02:27:45;;;;;;;;;;;5.90;75.60;;;;;;4929127;28;117552;-88
2020/12/04 02:30:11;;;;;;;;;;;5.90;75.70;;;;;;4912515;28;117439;-88
2020/12/04 02:32:37;;;;;;;;;;;5.90;75.60;;;;;;4911836;28;121047;-88
2020/12/04 02:35:02;;;;;;;;;;;5.90;75.70;;;;;;4928076;28;119593;-88
2020/12/04 02:37:28;;;;;;;;;;;5.90;75.70;;;;;;4928673;28;117452;-88
2020/12/04 02:39:54;;;;;;;;;;;5.90;75.60;;;;;;4929341;28;117920;-87
2020/12/04 02:42:19;;;;;;;;;;;5.90;75.70;;;;;;4927499;28;121052;-88
2020/12/04 02:44:45;;;;;;;;;;;5.90;75.60;;;;;;4927617;28;120399;-88
2020/12/04 02:47:10;;;;;;;;;;;5.90;75.70;;;;;;4929150;28;117560;-87
2020/12/04 02:49:36;;;;;;;;;;;5.90;75.70;;;;;;4929079;28;117429;-88
2020/12/04 02:52:01;;;;;;;;;;;5.90;75.70;;;;;;4927529;28;121128;-88
2020/12/04 02:54:27;;;;;;;;;;;5.90;75.70;;;;;;4927209;28;119208;-87
2020/12/04 02:56:53;;;;;;;;;;;5.90;75.70;;;;;;4928507;28;117524;-88
2020/12/04 02:59:18;;;;;;;;;;;5.90;75.70;;;;;;4928161;28;117962;-88
2020/12/04 03:01:44;;;;;;;;;;;5.90;75.60;;;;;;4926751;28;121181;-88
2020/12/04 03:04:09;;;;;;;;;;;5.90;75.70;;;;;;4927358;28;120317;-88
2020/12/04 03:06:35;;;;;;;;;;;5.90;75.70;;;;;;4928341;28;117469;-88
2020/12/04 03:09:01;;;;;;;;;;;5.90;75.70;;;;;;4928594;28;117917;-87
2020/12/04 03:11:26;;;;;;;;;;;5.90;75.70;;;;;;4927571;28;118769;-88
2020/12/04 03:13:52;;;;;;;;;;;5.90;75.70;;;;;;4927507;28;120904;-88
2020/12/04 03:16:18;;;;;;;;;;;5.90;75.70;;;;;;4928510;28;117611;-88
2020/12/04 03:18:43;;;;;;;;;;;5.90;75.60;;;;;;4927970;28;117899;-88
2020/12/04 03:21:09;;;;;;;;;;;5.90;75.70;;;;;;4927225;28;117530;-88
2020/12/04 03:23:34;;;;;;;;;;;5.90;75.80;;;;;;4927081;28;120222;-88
2020/12/04 03:26:00;;;;;;;;;;;5.90;75.70;;;;;;4928349;28;117751;-88
2020/12/04 03:28:25;;;;;;;;;;;5.90;75.80;;;;;;4928789;28;117885;-87
2020/12/04 03:30:51;;;;;;;;;;;5.90;75.70;;;;;;4927434;28;121351;-87
2020/12/04 03:33:17;;;;;;;;;;;5.90;75.80;;;;;;4911245;28;119121;-88
2020/12/04 03:35:42;;;;;;;;;;;5.90;75.70;;;;;;4929068;28;117435;-88
2020/12/04 03:38:08;;;;;;;;;;;5.90;75.80;;;;;;4929248;28;117851;-88
2020/12/04 03:40:33;;;;;;;;;;;5.90;75.80;;;;;;4927877;28;119773;-88
2020/12/04 03:42:59;;;;;;;;;;;5.90;75.80;;;;;;4927430;28;119445;-88
2020/12/04 03:45:24;;;;;;;;;;;5.90;75.80;;;;;;4928937;28;117504;-88
2020/12/04 03:47:50;;;;;;;;;;;5.90;75.80;;;;;;4929313;28;117847;-88
2020/12/04 03:50:15;;;;;;;;;;;5.90;75.80;;;;;;4927980;28;121158;-88
2020/12/04 03:52:41;;;;;;;;;;;5.90;75.80;;;;;;4927921;28;119118;-88
2020/12/04 03:55:06;;;;;;;;;;;5.90;75.80;;;;;;4929735;28;117394;-88
2020/12/04 03:57:32;;;;;;;;;;;5.90;75.80;;;;;;4929998;28;117926;-88
2020/12/04 03:59:57;;;;;;;;;;;5.90;75.80;;;;;;4928276;28;119331;-88
2020/12/04 04:02:23;;;;;;;;;;;5.90;75.90;;;;;;4927793;28;120382;-88
2020/12/04 04:04:49;;;;;;;;;;;5.90;75.90;;;;;;4913145;28;117277;-88
2020/12/04 04:07:14;;;;;;;;;;;5.90;75.80;;;;;;4928692;28;117825;-88
2020/12/04 04:09:40;;;;;;;;;;;5.90;75.90;;;;;;4927450;28;119554;-88
2020/12/04 04:12:05;;;;;;;;;;;5.90;75.80;;;;;;4930217;28;119564;-87
2020/12/04 04:14:31;;;;;;;;;;;5.90;75.80;;;;;;4931523;28;117339;-88
2020/12/04 04:16:56;;;;;;;;;;;5.90;75.80;;;;;;4931850;28;117962;-88
2020/12/04 04:19:22;;;;;;;;;;;5.90;75.70;;;;;;4930426;28;121102;-87
2020/12/04 04:21:47;;;;;;;;;;;5.90;75.80;;;;;;4930095;28;119249;-87
2020/12/04 04:24:13;;;;;;;;;;;5.90;75.80;;;;;;4931024;28;117486;-88
2020/12/04 04:26:38;;;;;;;;;;;5.90;75.80;;;;;;4931220;28;117409;-87
2020/12/04 04:29:04;;;;;;;;;;;5.90;75.80;;;;;;4930195;28;117535;-88
2020/12/04 04:31:30;;;;;;;;;;;5.90;75.80;;;;;;4928997;28;119298;-88
2020/12/04 04:33:55;;;;;;;;;;;5.90;75.80;;;;;;4930752;28;117556;-88
2020/12/04 04:36:21;;;;;;;;;;;5.90;75.80;;;;;;4930923;28;117819;-88
2020/12/04 04:38:46;;;;;;;;;;;5.90;75.80;;;;;;4929612;28;120118;-88
2020/12/04 04:41:13;;;;;;;;;;;5.90;75.80;;;;;;4929465;28;119090;-88
2020/12/04 04:43:38;;;;;;;;;;;5.90;75.80;;;;;;4914513;28;117425;-88
2020/12/04 04:46:26;;;;;;;;;;;5.90;75.80;;;;;;4930946;28;117425;-88
2020/12/04 04:48:54;;;;;;;;;;;5.90;75.80;;;;;;4913537;28;120348;-87
2020/12/04 04:51:25;;;;;;;;;;;5.90;75.70;;;;;;4929553;28;120021;-88
2020/12/04 04:53:51;;;;;;;;;;;5.90;75.70;;;;;;4930723;28;117484;-88
2020/12/04 04:56:17;;;;;;;;;;;5.90;75.70;;;;;;4930408;28;117812;-87
2020/12/04 04:58:42;;;;;;;;;;;5.90;75.70;;;;;;4929430;28;118607;-87
2020/12/04 05:01:08;;;;;;;;;;;5.90;75.60;;;;;;4928475;28;120297;-88
2020/12/04 05:03:33;;;;;;;;;;;5.90;75.70;;;;;;4930347;28;117357;-87
2020/12/04 05:05:59;;;;;;;;;;;5.90;75.70;;;;;;4950179;23;117454;-87
2020/12/04 05:08:24;;;;;;;;;;;5.90;75.70;;;;;;4913142;28;121512;-87
2020/12/04 05:10:50;;;;;;;;;;;5.90;75.70;;;;;;4913296;28;120518;-87
2020/12/04 05:13:19;;;;;;;;;;;5.90;75.70;;;;;;4914549;28;117462;-87
2020/12/04 05:15:45;;;;;;;;;;;5.90;75.70;;;;;;4923141;28;117277;-88
2020/12/04 05:18:11;;;;;;;;;;;5.90;75.70;;;;;;4929064;28;120753;-88
2020/12/04 05:20:39;;;;;;;;;;;5.90;75.70;;;;;;4928218;28;119659;-88
2020/12/04 05:23:05;;;;;;;;;;;5.90;75.70;;;;;;4929640;28;117527;-88
2020/12/04 05:25:59;;;;;;;;;;;5.90;75.70;;;;;;4930098;28;117509;-87
2020/12/04 05:28:25;;;;;;;;;;;5.90;75.80;;;;;;4941684;28;121533;-87
2020/12/04 05:31:02;;;;;;;;;;;5.90;75.70;;;;;;4928799;28;120776;-88
2020/12/04 05:33:28;;;;;;;;;;;5.90;75.70;;;;;;4929626;28;117446;-88
2020/12/04 05:35:53;;;;;;;;;;;5.90;75.80;;;;;;4929567;28;117322;-88
2020/12/04 05:38:19;;;;;;;;;;;5.90;75.70;;;;;;4928720;28;120011;-88
2020/12/04 05:40:45;;;;;;;;;;;5.90;75.80;;;;;;4928460;28;118862;-88
2020/12/04 05:43:10;;;;;;;;;;;5.90;75.80;;;;;;4929398;28;117766;-88
2020/12/04 05:45:36;;;;;;;;;;;5.90;75.70;;;;;;4945462;28;117895;-88
2020/12/04 05:48:02;;;;;;;;;;;5.90;75.80;;;;;;4928572;28;120302;-88
2020/12/04 05:50:27;;;;;;;;;;;5.90;75.80;;;;;;4928603;28;119448;-88
2020/12/04 05:52:53;;;;;;;;;;;5.90;75.80;;;;;;4945951;28;117466;-88
2020/12/04 05:55:18;;;;;;;;;;;5.90;75.80;;;;;;4946192;28;117645;-88
2020/12/04 05:57:44;;;;;;;;;;;5.90;75.80;;;;;;4928404;28;120078;-88
2020/12/04 06:00:10;;;;;;;;;;;5.90;75.80;;;;;;4944499;28;120561;-88
2020/12/04 06:02:36;;;;;;;;;;;5.90;75.80;;;;;;4929664;28;117520;-88
2020/12/04 06:05:01;;;;;;;;;;;5.90;75.80;;;;;;4945358;28;118555;-87
2020/12/04 06:07:27;;;;;;;;;;;5.90;75.80;;;;;;4928193;28;121206;-88
2020/12/04 06:09:53;;;;;;;;;;;5.90;75.90;;;;;;4927737;28;120478;-88
2020/12/04 06:12:19;;;;;;;;;;;5.90;75.90;;;;;;4929264;28;117245;-88
2020/12/04 06:14:44;;;;;;;;;;;5.90;75.90;;;;;;4929276;28;117496;-88
2020/12/04 06:17:10;;;;;;;;;;;5.90;75.90;;;;;;4928116;28;122153;-88
2020/12/04 06:19:37;;;;;;;;;;;5.90;75.90;;;;;;4928154;28;120003;-88
2020/12/04 06:22:04;;;;;;;;;;;5.90;75.90;;;;;;4928849;28;117645;-88
2020/12/04 06:24:30;;;;;;;;;;;5.90;75.90;;;;;;4929305;28;117537;-87
2020/12/04 06:26:55;;;;;;;;;;;5.90;75.90;;;;;;4928291;28;121486;-87
2020/12/04 06:29:20;;;;;;;;;;;5.90;75.90;;;;;;4927855;28;118940;-87
2020/12/04 06:31:46;;;;;;;;;;;5.90;75.90;;;;;;4945523;28;117887;-88
2020/12/04 06:34:12;;;;;;;;;;;5.90;75.90;;;;;;4927720;28;117895;-88
2020/12/04 06:36:38;;;;;;;;;;;5.90;75.90;;;;;;4927924;28;121004;-88
2020/12/04 06:39:03;;;;;;;;;;;5.90;75.80;;;;;;4927738;28;119044;-88
2020/12/04 06:41:34;;;;;;;;;;;5.90;75.80;;;;;;4928616;28;117664;-87
2020/12/04 06:44:00;;;;;;;;;;;5.90;75.80;;;;;;4929123;28;117544;-87
2020/12/04 06:46:27;;;;;;;;;;;5.90;75.70;;;;;;4927625;28;120750;-87
2020/12/04 06:49:04;;;;;;;;;;;5.90;75.80;;;;;;4927992;28;119216;-87
2020/12/04 06:51:29;;;;;;;;;;;5.90;75.90;;;;;;4928874;28;117579;-87
2020/12/04 06:53:55;;;;;;;;;;;5.90;75.80;;;;;;4929196;28;117332;-87
2020/12/04 06:56:20;;;;;;;;;;;5.90;75.80;;;;;;4927783;28;121517;-87
2020/12/04 06:58:46;;;;;;;;;;;5.90;75.80;;;;;;4927552;28;119362;-87
2020/12/04 07:01:11;;;;;;;;;;;5.90;75.80;;;;;;4928809;28;117541;-87
2020/12/04 07:03:37;;;;;;;;;;;5.90;75.80;;;;;;4929423;28;117458;-87
2020/12/04 07:06:02;;;;;;;;;;;5.90;75.90;;;;;;4927731;28;121344;-88
2020/12/04 07:08:28;;;;;;;;;;;5.90;75.90;;;;;;4928200;28;121036;-88
2020/12/04 07:10:53;;;;;;;;;;;5.90;75.90;;;;;;4928959;28;117577;-88
2020/12/04 07:13:19;;;;;;;;;;;5.90;75.90;;;;;;4929147;28;117482;-88
2020/12/04 07:15:44;;;;;;;;;;;5.90;75.90;;;;;;4928115;28;121738;-88
2020/12/04 07:18:10;;;;;;;;;;;5.90;75.90;;;;;;4928168;28;120549;-88
2020/12/04 07:20:36;;;;;;;;;;;5.90;75.90;;;;;;4946048;28;117560;-88
2020/12/04 07:23:05;;;;;;;;;;;5.90;75.90;;;;;;4928895;28;117436;-88
2020/12/04 07:25:30;;;;;;;;;;;5.90;75.90;;;;;;4928038;28;120124;-88
2020/12/04 07:27:56;;;;;;;;;;;5.90;75.90;;;;;;4927812;28;120808;-89
2020/12/04 07:30:25;;;;;;;;;;;5.90;76.50;;;;;;4928636;28;118103;-89
2020/12/04 07:32:51;;;;;;;;;;;5.90;75.90;;;;;;4945164;28;117848;-88
2020/12/04 07:35:17;;;;;;;;;;;5.90;75.90;;;;;;4927441;28;120219;-89
2020/12/04 07:37:42;;;;;;;;;;;5.90;75.90;;;;;;4927576;28;121056;-88
2020/12/04 07:40:08;;;;;;;;;;;5.90;75.90;;;;;;4945145;28;117381;-87
2020/12/04 07:42:33;;;;;;;;;;;5.90;75.90;;;;;;4945272;28;117555;-87
2020/12/04 07:44:59;;;;;;;;;;;5.90;75.80;;;;;;4928638;28;120331;-87
2020/12/04 07:47:25;;;;;;;;;;;5.90;75.90;;;;;;4929981;28;119483;-87
2020/12/04 07:49:52;;;;;;;;;;;5.90;75.90;;;;;;4931511;28;117514;-87
2020/12/04 07:52:21;;;;;;;;;;;5.90;75.90;;;;;;4931680;28;117927;-87
2020/12/04 07:54:56;;;;;;;;;;;5.90;75.90;;;;;;4946564;28;121623;-87
2020/12/04 07:57:24;;;;;;;;;;;5.90;76.00;;;;;;4946470;28;120756;-87
2020/12/04 07:59:50;;;;;;;;;;;5.90;75.90;;;;;;4931568;28;117404;-87
2020/12/04 08:02:20;;;;;;;;;;;5.90;76.00;;;;;;4931504;28;117481;-87
2020/12/04 08:04:45;;;;;;;;;;;5.90;75.90;;;;;;4929593;28;120181;-87
2020/12/04 08:07:11;;;;;;;;;;;5.90;75.90;;;;;;4946638;28;117620;-87
2020/12/04 08:09:41;;;;;;;;;;;5.90;75.90;;;;;;4947357;28;117447;-87
2020/12/04 08:12:10;;;;;;;;;;;5.90;75.90;;;;;;4930885;28;117314;-87
2020/12/04 08:14:37;;;;;;;;;;;5.90;75.90;;;;;;4929832;28;121678;-87
2020/12/04 08:17:04;;;;;;;;;;;5.90;75.90;;;;;;4930074;28;119350;-87
2020/12/04 08:19:30;;;;;;;;;;;5.90;75.90;;;;;;4930701;28;117526;-87
2020/12/04 08:22:03;;;;;;;;;;;5.90;75.90;;;;;;4947651;28;117337;-87
2020/12/04 08:24:29;;;;;;;;;;;5.90;75.80;;;;;;4929422;28;120699;-87
2020/12/04 08:27:05;;;;;;;;;;;5.90;75.60;;;;;;4929849;28;120020;-88
2020/12/04 08:29:30;;;;;;;;;;;5.90;75.30;;;;;;4947241;28;117272;-88
2020/12/04 08:32:03;;;;;;;;;;;5.90;75.50;;;;;;4930970;28;117353;-88
2020/12/04 08:34:28;;;;;;;;;;;5.90;75.50;;;;;;4929255;28;121061;-87
2020/12/04 08:36:58;;;;;;;;;;;5.90;75.50;;;;;;4928955;28;119233;-88
2020/12/04 08:39:32;;;;;;;;;;;5.90;76.10;;;;;;4930521;28;117474;-88
2020/12/04 08:42:09;;;;;;;;;;;5.90;76.10;;;;;;4930665;28;117817;-88
2020/12/04 08:44:34;;;;;;;;;;;5.90;75.60;;;;;;4929275;28;121569;-87
2020/12/04 08:46:59;;;;;;;;;;;6.00;75.60;;;;;;4929296;28;120567;-88
2020/12/04 08:49:25;;;;;;;;;;;5.90;75.60;;;;;;4930342;28;117428;-88
2020/12/04 08:51:51;;;;;;;;;;;5.90;75.60;;;;;;4930670;28;117609;-88
2020/12/04 08:54:16;;;;;;;;;;;5.90;75.60;;;;;;4946160;28;117521;-87
2020/12/04 08:56:51;;;;;;;;;;;5.90;75.60;;;;;;4928821;28;119337;-88
2020/12/04 08:59:16;;;;;;;;;;;5.90;75.60;;;;;;4946901;28;117576;-88
2020/12/04 09:01:42;;;;;;;;;;;5.90;75.60;;;;;;4930064;28;117432;-87
2020/12/04 09:04:07;;;;;;;;;;;5.90;75.60;;;;;;4929109;28;120245;-87
2020/12/04 09:06:33;;;;;;;;;;;5.90;75.60;;;;;;4945282;28;117403;-87
2020/12/04 09:08:58;;;;;;;;;;;5.90;75.60;;;;;;4930112;28;117578;-87
2020/12/04 09:11:24;;;;;;;;;;;5.90;75.60;;;;;;4930582;28;117871;-87
2020/12/04 09:13:49;;;;;;;;;;;5.90;75.70;;;;;;4945728;28;117481;-87
2020/12/04 09:16:15;;;;;;;;;;;5.90;75.60;;;;;;4929038;28;120227;-87
2020/12/04 09:18:40;;;;;;;;;;;5.90;75.60;;;;;;4930254;28;117536;-87
2020/12/04 09:21:06;;;;;;;;;;;6.00;75.70;;;;;;4930344;28;117820;-87
2020/12/04 09:23:34;;;;;;;;;;;5.90;75.60;;;;;;4929311;28;122608;-87
2020/12/04 09:25:59;;;;;;;;;;;5.90;75.60;;;;;;4928643;28;119620;-87
2020/12/04 09:28:24;;;;;;;;;;;5.90;75.60;;;;;;4930124;28;117781;-87
2020/12/04 09:30:50;;;;;;;;;;;5.90;75.60;;;;;;4930621;28;117844;-87
2020/12/04 09:33:15;;;;;;;;;;;5.90;75.70;;;;;;4945739;28;118667;-87
2020/12/04 09:35:41;;;;;;;;;;;5.90;75.70;;;;;;4929165;28;122170;-87
2020/12/04 09:38:07;;;;;;;;;;;5.90;75.60;;;;;;4946843;28;117421;-87
2020/12/04 09:40:32;;;;;;;;;;;5.90;75.70;;;;;;4930486;28;117852;-87
2020/12/04 09:42:58;;;;;;;;;;;5.90;75.60;;;;;;4929524;28;119999;-87
2020/12/04 09:45:23;;;;;;;;;;;5.90;75.60;;;;;;4928842;28;119073;-87
2020/12/04 09:47:49;;;;;;;;;;;5.90;75.70;;;;;;4930475;28;117609;-87
2020/12/04 09:50:15;;;;;;;;;;;5.90;75.60;;;;;;4930085;28;117322;-87
2020/12/04 09:52:41;;;;;;;;;;;5.90;75.60;;;;;;4929275;28;121811;-87
2020/12/04 09:55:07;;;;;;;;;;;5.90;75.60;;;;;;4928801;28;119160;-87
2020/12/04 09:57:34;;;;;;;;;;;5.90;75.60;;;;;;4930050;28;117402;-87
2020/12/04 09:59:59;;;;;;;;;;;5.90;75.60;;;;;;4930613;28;117626;-87
2020/12/04 10:02:25;;;;;;;;;;;5.90;75.70;;;;;;4928800;28;121462;-87
2020/12/04 10:04:51;;;;;;;;;;;5.90;75.60;;;;;;4928244;28;119236;-87
2020/12/04 10:07:16;;;;;;;;;;;5.90;75.60;;;;;;4929666;28;117527;-87
2020/12/04 10:09:42;;;;;;;;;;;5.90;75.60;;;;;;4946304;28;117875;-87
2020/12/04 10:12:07;;;;;;;;;;;5.90;75.60;;;;;;4945242;28;118677;-87
2020/12/04 10:14:34;;;;;;;;;;;5.90;75.60;;;;;;4927554;28;120581;-87
2020/12/04 10:16:59;;;;;;;;;;;5.90;75.60;;;;;;4929409;28;117574;-87
2020/12/04 10:19:25;;;;;;;;;;;5.90;75.60;;;;;;4929490;28;117358;-87
2020/12/04 10:21:50;;;;;;;;;;;6.00;75.60;;;;;;4927994;28;121480;-87
2020/12/04 10:24:16;;;;;;;;;;;5.90;75.60;;;;;;4927941;28;120088;-87
2020/12/04 10:26:42;;;;;;;;;;;5.90;75.60;;;;;;4929018;28;117371;-87
2020/12/04 10:29:08;;;;;;;;;;;5.90;75.60;;;;;;4929135;28;117565;-87
2020/12/04 10:31:34;;;;;;;;;;;5.90;75.60;;;;;;4928190;28;119712;-87
2020/12/04 10:33:59;;;;;;;;;;;5.90;75.60;;;;;;4928033;28;120237;-87
2020/12/04 10:36:26;;;;;;;;;;;5.90;75.60;;;;;;4945126;28;117893;-86
2020/12/04 10:38:52;;;;;;;;;;;5.90;75.60;;;;;;4928424;28;117859;-87
2020/12/04 10:41:17;;;;;;;;;;;5.90;75.60;;;;;;4944229;28;118509;-87
2020/12/04 10:43:43;;;;;;;;;;;5.90;75.60;;;;;;4927787;28;120497;-87
2020/12/04 10:46:08;;;;;;;;;;;5.90;75.60;;;;;;4928237;28;117449;-87
2020/12/04 10:48:34;;;;;;;;;;;5.90;75.60;;;;;;4929314;28;117716;-87
2020/12/04 10:51:01;;;;;;;;;;;5.90;75.60;;;;;;4927382;28;139535;-87
2020/12/04 10:53:28;;;;;;;;;;;5.90;75.60;;;;;;4927697;28;119539;-87
2020/12/04 10:55:53;;;;;;;;;;;5.90;75.60;;;;;;4928523;28;117753;-87
2020/12/04 10:58:19;;;;;;;;;;;5.90;75.60;;;;;;4928716;28;117734;-87
2020/12/04 11:00:49;;;;;;;;;;;5.90;75.60;;;;;;4943844;28;118410;-87
2020/12/04 11:03:30;;;;;;;;;;;5.90;75.50;;;;;;4927557;28;120928;-87
2020/12/04 11:06:01;;;;;;;;;;;5.90;75.50;;;;;;4969513;23;119158;-90
2020/12/04 11:08:26;;;;;;;;;;;5.90;75.50;;;;;;4948523;28;117867;-88
2020/12/04 11:10:52;;;;;;;;;;;5.90;75.60;;;;;;4932004;28;121149;-89
2020/12/04 11:13:17;;;;;;;;;;;5.90;75.50;;;;;;4931344;28;120276;-89
2020/12/04 11:15:43;;;;;;;;;;;5.90;75.50;;;;;;4931725;28;117506;-89
2020/12/04 11:18:09;;;;;;;;;;;5.90;75.50;;;;;;4948783;28;117853;-89
2020/12/04 11:20:34;;;;;;;;;;;6.00;75.60;;;;;;4950045;28;119751;-89
2020/12/04 11:23:00;;;;;;;;;;;5.90;75.60;;;;;;4950601;28;119082;-89
2020/12/04 11:25:25;;;;;;;;;;;5.90;75.60;;;;;;4951176;28;117529;-89
2020/12/04 11:27:52;;;;;;;;;;;5.90;75.60;;;;;;4951205;28;117841;-89
2020/12/04 11:30:18;;;;;;;;;;;5.90;75.60;;;;;;4950621;28;120112;-89
2020/12/04 11:32:44;;;;;;;;;;;5.90;75.50;;;;;;4950506;28;119527;-89
2020/12/04 11:35:10;;;;;;;;;;;5.90;75.50;;;;;;4951155;28;117521;-89
2020/12/04 11:37:36;;;;;;;;;;;5.90;75.60;;;;;;4951595;28;117793;-89
2020/12/04 11:40:03;;;;;;;;;;;5.90;75.60;;;;;;4950209;28;120120;-89
2020/12/04 11:42:28;;;;;;;;;;;5.90;75.50;;;;;;4950349;28;119208;-89
2020/12/04 11:44:54;;;;;;;;;;;5.90;75.40;;;;;;4951122;28;117965;-89
2020/12/04 11:47:20;;;;;;;;;;;6.00;75.50;;;;;;4951241;28;117329;-89
2020/12/04 11:49:45;;;;;;;;;;;5.90;75.50;;;;;;4949949;28;119913;-89
2020/12/04 11:52:11;;;;;;;;;;;5.90;75.50;;;;;;4949564;28;120551;-89
2020/12/04 11:54:36;;;;;;;;;;;5.90;75.50;;;;;;4951065;28;117262;-89
2020/12/04 11:57:02;;;;;;;;;;;5.90;75.50;;;;;;4951010;28;117619;-89
2020/12/04 11:59:27;;;;;;;;;;;5.90;75.50;;;;;;4949956;28;120105;-89
2020/12/04 12:01:55;;;;;;;;;;;5.90;75.50;;;;;;4949913;28;120305;-89
2020/12/04 12:04:20;;;;;;;;;;;5.90;75.50;;;;;;4950967;28;117647;-89
2020/12/04 12:06:46;;;;;;;;;;;6.00;75.60;;;;;;4950907;28;117750;-89
2020/12/04 12:09:12;;;;;;;;;;;5.90;75.50;;;;;;4949867;28;120277;-89
2020/12/04 12:11:37;;;;;;;;;;;6.00;75.60;;;;;;4949956;28;119213;-88
2020/12/04 12:14:03;;;;;;;;;;;5.90;75.50;;;;;;4950717;28;117584;-90
2020/12/04 12:16:28;;;;;;;;;;;5.90;75.50;;;;;;4950201;28;117845;-89
2020/12/04 12:18:54;;;;;;;;;;;5.90;75.50;;;;;;4949734;28;120305;-89
2020/12/04 12:21:19;;;;;;;;;;;6.00;75.50;;;;;;4949511;28;119284;-88
2020/12/04 12:23:45;;;;;;;;;;;6.00;75.50;;;;;;4950616;28;117315;-89
2020/12/04 12:26:11;;;;;;;;;;;6.00;75.50;;;;;;4950477;28;117375;-88
2020/12/04 12:28:37;;;;;;;;;;;6.00;75.50;;;;;;4949438;28;121188;-88
2020/12/04 12:31:03;;;;;;;;;;;6.00;75.50;;;;;;4948330;28;120508;-88
2020/12/04 12:33:28;;;;;;;;;;;6.00;75.50;;;;;;4950273;28;117461;-88
2020/12/04 12:35:54;;;;;;;;;;;6.00;75.60;;;;;;4950305;28;117932;-88
2020/12/04 12:38:19;;;;;;;;;;;6.00;75.60;;;;;;4949353;28;120396;-88
2020/12/04 12:40:45;;;;;;;;;;;6.00;75.50;;;;;;4948492;28;120559;-88
2020/12/04 12:43:10;;;;;;;;;;;6.00;75.50;;;;;;4950035;28;117473;-88
2020/12/04 12:45:36;;;;;;;;;;;6.00;75.50;;;;;;4950049;28;117941;-88
2020/12/04 12:48:01;;;;;;;;;;;6.00;75.60;;;;;;4949217;28;119950;-88
2020/12/04 12:50:27;;;;;;;;;;;5.90;75.50;;;;;;4948967;28;119226;-88
2020/12/04 12:52:52;;;;;;;;;;;6.00;75.60;;;;;;4950151;28;117506;-88
2020/12/04 12:55:18;;;;;;;;;;;6.00;75.60;;;;;;4950545;28;117790;-88
2020/12/04 12:57:43;;;;;;;;;;;6.00;75.60;;;;;;4949314;28;120167;-88
2020/12/04 13:00:09;;;;;;;;;;;6.00;75.60;;;;;;4949549;28;119196;-88
2020/12/04 13:02:35;;;;;;;;;;;6.00;75.60;;;;;;4950304;28;117340;-88
2020/12/04 13:05:00;;;;;;;;;;;6.00;75.60;;;;;;4950063;28;117760;-88
2020/12/04 13:07:26;;;;;;;;;;;6.00;75.60;;;;;;4949130;28;120127;-88
2020/12/04 13:09:51;;;;;;;;;;;6.00;75.60;;;;;;4949251;28;120151;-88
2020/12/04 13:12:17;;;;;;;;;;;6.00;75.60;;;;;;4950581;28;117411;-88
2020/12/04 13:14:42;;;;;;;;;;;6.00;75.60;;;;;;4951147;28;117886;-88
2020/12/04 13:17:08;;;;;;;;;;;6.00;75.60;;;;;;4949739;28;120203;-88
2020/12/04 13:19:33;;;;;;;;;;;6.00;75.60;;;;;;4949604;28;119933;-88
2020/12/04 13:22:02;;;;;;;;;;;6.00;75.60;;;;;;4951065;28;117469;-88
2020/12/04 13:24:32;;;;;;;;;;;6.00;75.60;;;;;;4951331;28;117610;-88
2020/12/04 13:26:58;;;;;;;;;;;6.00;75.60;;;;;;4949325;28;119705;-88
2020/12/04 13:29:24;;;;;;;;;;;6.00;75.50;;;;;;4949305;28;119972;-88
2020/12/04 13:31:53;;;;;;;;;;;6.00;75.50;;;;;;4950408;28;117418;-88
2020/12/04 13:34:18;;;;;;;;;;;6.00;75.50;;;;;;4950672;28;117877;-89
2020/12/04 13:36:44;;;;;;;;;;;6.00;75.60;;;;;;4948828;28;120241;-89
2020/12/04 13:39:09;;;;;;;;;;;6.00;75.60;;;;;;4948955;28;119233;-88
2020/12/04 13:41:35;;;;;;;;;;;5.90;75.50;;;;;;4949323;28;117421;-89
2020/12/04 13:44:00;;;;;;;;;;;6.00;75.60;;;;;;4949889;28;117244;-88
2020/12/04 13:46:26;;;;;;;;;;;6.00;75.60;;;;;;4948456;28;120235;-88
2020/12/04 13:48:52;;;;;;;;;;;6.00;75.60;;;;;;4948488;28;119251;-88
2020/12/04 13:51:18;;;;;;;;;;;5.90;75.60;;;;;;4949589;28;117544;-88
2020/12/04 13:53:44;;;;;;;;;;;6.00;75.60;;;;;;4948913;28;117775;-88
2020/12/04 13:56:09;;;;;;;;;;;6.00;75.60;;;;;;4948146;28;121155;-88
2020/12/04 13:58:35;;;;;;;;;;;6.00;75.60;;;;;;4948225;28;120137;-88
2020/12/04 14:01:01;;;;;;;;;;;6.00;75.60;;;;;;4948949;28;117604;-88
2020/12/04 14:03:27;;;;;;;;;;;6.00;75.60;;;;;;4949485;28;117673;-89
2020/12/04 14:05:53;;;;;;;;;;;6.00;75.60;;;;;;4947846;28;120997;-88
2020/12/04 14:08:18;;;;;;;;;;;6.00;75.60;;;;;;4947742;28;120421;-88
2020/12/04 14:10:44;;;;;;;;;;;6.00;75.60;;;;;;4949110;28;117453;-89